• Join FlightAware (Why Join?)
  • Login
  • US Flag 
09:42AM EDT


 

Airport Tracker/Info


-or-


 

Live Flight TrackerFlight Track Log ✈ EJA312 ✈ 20-Oct-2013 ✈ KUOX - KHOU

Flight Track Log - Related Links

Times and Time Zones

All times are in EDT time to prevent confusion due to time zone crossing. See the EJA312 flight status page for this flight to view local times or setup timezone preferences in your user account.

Time Position Orientation Groundspeed Altitude Reporting Facility
EDT Latitude Longitude Course Direction KTS MPH feet Rate Location/Type
02:09PM 30.4900 -94.5240 223° Southwest 381 438 17,000  Level FlightAware ADS-B
02:10PM 30.4230 -94.6290 233° Southwest 369 425 15,500 -1,380 Descending FlightAware ADS-B
02:11PM 30.3910 -94.6780 233° Southwest 356 410 14,800 -1,320 Descending FlightAware ADS-B
02:11PM 30.3600 -94.7260 233° Southwest 326 375 14,100 -1,200 Descending FlightAware ADS-B
02:12PM 30.3320 -94.7700 219° Southwest 318 366 13,500 -1,200 Descending FlightAware ADS-B
02:12PM 30.3050 -94.8120 233° Southwest 310 357 12,900 -1,140 Descending FlightAware ADS-B
02:13PM 30.2800 -94.8510 30° Northeast 305 351 12,400 -1,020 Descending FlightAware ADS-B
02:14PM 30.2490 -94.8980 30° Northeast 310 357 11,800 -960 Descending FlightAware ADS-B
02:14PM 30.2230 -94.9390 30° Northeast 313 360 11,400 -960 Descending FlightAware ADS-B
02:15PM 30.1670 -95.0250 244° Southwest 311 358 10,300 -1,020 Descending FlightAware ADS-B
02:15PM 30.1510 -95.0490 232° Southwest 313 360 10,000 -780 Descending FlightAware ADS-B
02:16PM 30.1450 -95.0570 229° Southwest 314 361 10,000  Level FlightAware ADS-B
02:16PM 30.1390 -95.0630 221° Southwest 314 361 10,000  Level FlightAware ADS-B
02:16PM 30.1240 -95.0740 221° Southwest 315 362 10,000  Level FlightAware ADS-B
02:16PM 30.1160 -95.0790 208° Southwest 318 366 10,000  Level FlightAware ADS-B
02:16PM 30.0910 -95.0890 199° South 320 368 10,000  Level FlightAware ADS-B
02:17PM 30.0660 -95.1000 201° Southwest 318 366 10,000  Level FlightAware ADS-B
02:17PM 30.0410 -95.1110 237° Southwest 316 364 10,000 -60 Level FlightAware ADS-B
04:29PM 34.3767 -89.5958 265° West 200 230 2,900 -60 Descending Memphis Center
04:30PM 34.3517 -89.6675 247° West 219 252 6,600 3,720 Climbing Memphis Center
04:31PM 34.0342 -89.9940 253° West  Level Estimated
04:31PM 34.3250 -89.7475 248° West 243 280 10,600  Level Memphis Center
04:32PM 34.0253 -90.0971 264° West  Level FlightAware Approximate
04:32PM 34.2989 -89.8242 248° West 244 281 14,100  Level Memphis Center
04:33PM 33.9662 -90.1723 239° Southwest  Level Estimated
04:33PM 34.2708 -89.9042 247° West 251 289 16,800  Level Memphis Center
04:34PM 33.9070 -90.2473 245° Southwest  Level Estimated
04:34PM 34.2417 -89.9908 248° West 268 308 19,500  Level Memphis Center
04:35PM 33.8998 -90.3504 265° West  Level FlightAware Approximate
04:36PM 34.2114 -90.0800 248° West 279 321 22,200  Level Memphis Center
04:37PM 34.1797 -90.1708 247° West 286 329 23,700 2,220 Climbing Memphis Center
04:38PM 34.1428 -90.2797 248° West 296 341 26,800 2,460 Climbing Memphis Center
04:39PM 34.1111 -90.3700 247° West 293 337 28,900 1,860 Climbing Memphis Center
04:40PM 34.0786 -90.4614 247° West 293 337 30,700 1,740 Climbing Memphis Center
04:41PM 34.0469 -90.5539 248° West 294 338 32,500 1,380 Climbing Memphis Center
04:42PM 34.0153 -90.6450 247° West 293 337 33,600 720 Climbing Memphis Center
04:43PM 33.9811 -90.7419 247° West 304 350 34,000 180 Climbing Memphis Center
04:44PM 33.9456 -90.8458 248° West 323 372 34,000  Level Memphis Center
04:45PM 33.9069 -90.9539 247° West 342 394 34,000  Level Memphis Center
04:46PM 33.8617 -91.0775 246° West 343 395 34,000  Level Memphis Center
04:47PM 33.8247 -91.1850 248° West 344 396 34,000  Level Memphis Center
04:48PM 33.7656 -91.2772 232° Southwest 350 403 34,000  Level Memphis Center
04:49PM 33.6911 -91.3531 220° Southwest 353 406 34,000  Level Memphis Center
04:50PM 33.6172 -91.4308 221° Southwest 356 410 34,000  Level Memphis Center
04:51PM 33.5425 -91.5067 220° Southwest 355 409 34,000  Level Memphis Center
04:52PM 33.4533 -91.5997 221° Southwest 357 411 34,000  Level Memphis Center
04:53PM 33.3806 -91.6756 221° Southwest 353 406 34,000  Level Memphis Center
04:54PM 33.3011 -91.7556 220° Southwest 356 410 34,000  Level Memphis Center
04:55PM 33.2306 -91.8286 221° Southwest 356 410 34,000  Level Memphis Center
04:56PM 33.1411 -91.9203 221° Southwest 356 410 34,000  Level Memphis Center
04:57PM 33.0667 -91.9956 220° Southwest 354 407 34,000  Level Memphis Center
04:58PM 33.0011 -92.0622 220° Southwest 354 407 34,000  Level Memphis Center
04:59PM 32.9161 -92.1508 221° Southwest 346 398 34,000  Level Memphis Center
05:00PM 32.8692 -92.1950 218° Southwest 356 410 34,000  Level Fort Worth Center
05:01PM 32.7972 -92.2708 222° Southwest 356 410 34,000  Level Fort Worth Center
05:02PM 32.7228 -92.3417 219° Southwest 356 410 34,000  Level Fort Worth Center
05:04PM 32.5853 -92.4806 220° Southwest 341 392 34,000  Level Houston Center
05:05PM 32.5125 -92.5564 221° Southwest 347 399 34,000  Level Houston Center
05:06PM 32.4392 -92.6283 220° Southwest 345 397 34,000  Level Houston Center
05:07PM 32.3550 -92.7142 221° Southwest 344 396 34,000  Level Houston Center
05:08PM 32.2817 -92.7856 219° Southwest 344 396 34,000  Level Houston Center
05:09PM 32.2086 -92.8583 220° Southwest 343 395 34,000  Level Houston Center
05:10PM 32.1356 -92.9300 220° Southwest 343 395 34,000  Level Houston Center
05:11PM 32.0636 -93.0028 221° Southwest 343 395 34,000  Level Houston Center
05:12PM 31.9903 -93.0736 219° Southwest 342 394 34,000  Level Houston Center
05:13PM 31.9022 -93.1594 220° Southwest 343 395 34,000  Level Houston Center
05:14PM 31.8306 -93.2303 220° Southwest 340 391 34,000  Level Houston Center
05:15PM 31.7575 -93.3011 220° Southwest 341 392 34,000  Level Houston Center
05:16PM 31.6872 -93.3714 220° Southwest 336 387 34,000  Level Houston Center
05:17PM 31.6142 -93.4417 219° Southwest 339 390 34,000  Level Houston Center
05:18PM 31.5278 -93.5258 220° Southwest 338 389 34,000  Level Houston Center
05:19PM 31.4556 -93.5953 219° Southwest 339 390 34,000  Level Houston Center
05:20PM 31.3839 -93.6658 220° Southwest 336 387 34,000 -240 Level Houston Center
05:21PM 31.3114 -93.7358 220° Southwest 336 387 33,600 -1,020 Descending Houston Center
05:22PM 31.2331 -93.8108 219° Southwest 345 397 31,900 -1,800 Descending Houston Center
05:23PM 31.1456 -93.8961 220° Southwest 352 405 29,900 -1,800 Descending Houston Center
05:25PM 31.0694 -93.9697 220° Southwest 354 407 28,200 -1,740 Descending Houston Center
05:26PM 30.9856 -94.0500 219° Southwest 377 434 26,400 -1,680 Descending Houston Center
05:27PM 30.9019 -94.1294 219° Southwest 387 445 24,800 -1,680 Descending Houston Center
05:29PM 30.7178 -94.3058 219° Southwest 383 441 21,100 -1,680 Descending Houston Center
05:30PM 30.6539 -94.3658 30° Northeast 387 445 19,700 -1,500 Descending Houston Center
05:32PM 30.4753 -94.5483 244° Southwest 382 440 16,700 -1,380 Descending Houston Center
05:34PM 30.3567 -94.7342 237° Southwest 352 405 14,100 -960 Descending Houston Center
05:39PM 30.0287 -95.1163 201° Southwest 314 361 10,000 -780 Descending FlightAware ADS-B
05:40PM 29.9975 -95.1299 201° Southwest 307 353 9,900 -480 Descending FlightAware ADS-B
05:40PM 29.9767 -95.1388 200° South 277 319 9,700 -900 Descending FlightAware ADS-B
05:40PM 29.9478 -95.1512 200° South 277 319 9,300 -1,260 Descending FlightAware ADS-B
05:41PM 29.9237 -95.1616 200° South 272 313 8,800 -1,500 Descending FlightAware ADS-B
05:41PM 29.9004 -95.1717 200° South 265 305 8,300 -1,620 Descending FlightAware ADS-B
05:41PM 29.8761 -95.1821 200° South 268 308 7,700 -1,680 Descending FlightAware ADS-B
05:42PM 29.8535 -95.1918 200° South 270 311 7,200 -1,560 Descending FlightAware ADS-B
05:42PM 29.8299 -95.2019 200° South 269 310 6,700 -1,740 Descending FlightAware ADS-B
05:42PM 29.8114 -95.2099 200° South 269 310 6,200 -1,380 Descending FlightAware ADS-B
05:42PM 29.7948 -95.2170 200° South 260 299 6,000 -360 Descending FlightAware ADS-B
05:43PM 29.7727 -95.2265 200° South 236 272 6,000  Level FlightAware ADS-B
05:43PM 29.7530 -95.2349 200° South 223 257 6,000  Level FlightAware ADS-B
05:43PM 29.7335 -95.2432 200° South 226 260 6,000  Level FlightAware ADS-B
05:44PM 29.7126 -95.2522 201° Southwest 229 264 6,000  Level FlightAware ADS-B
05:44PM 29.6922 -95.2609 200° South 232 267 6,000  Level FlightAware ADS-B
05:44PM 29.6720 -95.2701 201° Southwest 232 267 6,000  Level FlightAware ADS-B
05:45PM 29.6648 -95.2755 213° Southwest 231 266 6,000  Level FlightAware ADS-B
05:45PM 29.6624 -95.2779 221° Southwest 228 262 6,000  Level FlightAware ADS-B
05:45PM 29.6511 -95.2968 235° Southwest 210 242 6,000 -240 Level FlightAware ADS-B
05:45PM 29.6462 -95.3166 254° West 193 222 5,900 -780 Descending FlightAware ADS-B
05:46PM 29.6409 -95.3366 253° West 190 219 5,500 -1,080 Descending FlightAware ADS-B
05:46PM 29.6361 -95.3551 253° West 190 219 5,200 -1,020 Descending FlightAware ADS-B
05:46PM 29.6369 -95.3651 275° West 195 224 5,000 -1,500 Descending FlightAware ADS-B
05:46PM 29.6413 -95.3742 299° West 198 228 4,700 -1,440 Descending FlightAware ADS-B
05:47PM 29.6526 -95.3928 305° West 203 234 4,300 -1,200 Descending FlightAware ADS-B
05:47PM 29.6630 -95.4097 305° West 205 236 3,900 -1,200 Descending FlightAware ADS-B
05:47PM 29.6741 -95.4277 305° West 204 235 3,500 -1,200 Descending FlightAware ADS-B
05:48PM 29.6854 -95.4462 305° West 201 231 3,100 -1,080 Descending FlightAware ADS-B
05:48PM 29.6945 -95.4609 305° West 198 228 2,800 -960 Descending FlightAware ADS-B
05:48PM 29.6976 -95.4644 315° West 198 228 2,700 -840 Descending FlightAware ADS-B
05:49PM 29.7417 -95.4409 25° Northeast 191 220 2,000 -660 Descending FlightAware ADS-B
05:49PM 29.7446 -95.4319 69° East 184 212 2,000  Level FlightAware ADS-B
05:49PM 29.7438 -95.4222 95° East 180 207 2,000  Level FlightAware ADS-B
05:50PM 29.7404 -95.4033 102° East 180 207 2,000  Level FlightAware ADS-B
05:50PM 29.7360 -95.3851 106° East 182 209 2,000  Level FlightAware ADS-B
05:50PM 29.7296 -95.3769 132° Southeast 181 208 2,000  Level FlightAware ADS-B
05:50PM 29.7177 -95.3646 138° Southeast 180 207 2,000 -360 Level FlightAware ADS-B
05:51PM 29.7066 -95.3515 135° Southeast 164 189 1,800 -600 Descending FlightAware ADS-B
05:51PM 29.6964 -95.3396 135° Southeast 146 168 1,600 -1,080 Descending FlightAware ADS-B
05:51PM 29.6873 -95.3291 135° Southeast 141 162 1,100 -840 Descending FlightAware ADS-B
05:52PM 29.6711 -95.3111 135° Southeast 125 144 800 -420 Descending Houston Center
05:52PM 29.6689 -95.3069 122° Southeast 152 175 700 -300 Descending Houston Center